This is the latest recevied weather packets stored in our database for station/object EA1IWF-10. If no packets are shown the sender has not sent any weather packets the latest 10 day(s).
| Time | Temp. | Humidity | Pressure | Rain* | Wind** | Luminosity | Snow |
|---|---|---|---|---|---|---|---|
| 1788537952 | 40° C | 15% | 1024.3 hPa | - | - | - | - |
| 1788537051 | 44.44° C | 13% | 1024.4 hPa | - | - | - | - |
| 1788536151 | 40° C | 16% | 1024.3 hPa | - | - | - | - |
| 1788535250 | 47.22° C | 12% | 1024.4 hPa | - | - | - | - |
| 1788534349 | 45.56° C | 13% | 1024.6 hPa | - | - | - | - |
| 1788533448 | 43.89° C | 14% | 1024.7 hPa | - | - | - | - |
| 1788532547 | 42.78° C | 14% | 1024.7 hPa | - | - | - | - |
| 1788531646 | 41.67° C | 15% | 1025 hPa | - | - | - | - |
| 1788530753 | 41.67° C | 14% | 1025 hPa | - | - | - | - |
| 1788529864 | 41.67° C | 14% | 1025.1 hPa | - | - | - | - |
| 1788529474 | 42.22° C | 16% | 1025.2 hPa | - | - | - | - |
| 1788508540 | 22.78° C | 52% | 1026.9 hPa | - | - | - | - |
| 1788502944 | 21.11° C | 49% | 1025.8 hPa | - | - | - | - |
| 1788477337 | 28.33° C | 23% | 1026 hPa | - | - | - | - |
| 1788476436 | 30° C | 24% | 1026 hPa | - | - | - | - |
| 1788476409 | 28.89° C | 24% | 1026 hPa | - | - | - | - |
| 1788475508 | 28.89° C | 23% | 1025.9 hPa | - | - | - | - |
| 1788474607 | 29.44° C | 23% | 1026 hPa | - | - | - | - |
| 1788473707 | 29.44° C | 24% | 1025.9 hPa | - | - | - | - |
| 1788472806 | 30° C | 22% | 1025.9 hPa | - | - | - | - |
| 1788471905 | 30° C | 24% | 1026 hPa | - | - | - | - |
| 1788471004 | 30.56° C | 22% | 1026 hPa | - | - | - | - |
| 1788470103 | 31.11° C | 24% | 1026.1 hPa | - | - | - | - |
| 1788469203 | 31.67° C | 18% | 1026.1 hPa | - | - | - | - |
| 1788468302 | 32.22° C | 18% | 1026 hPa | - | - | - | - |
* Rain since midnight (hover to see other rain measurements)
** Current wind speed in m/s (hover to see current wind gust speed)